Aviation Digital Data Service (ADDS)

Output produced by METARs form (1827 UTC 22 November 2017)
found at http://www.aviationweather.gov/adds/metars/
 
VVDN 221800Z 03006KT 4000 -RA BR SCT012 OVC040 24/22 Q1014 NOSIG
TAF VVDN 221700Z 2218/2318 03008KT 4000 BR SCT012 OVC040 
     TEMPO 2218/2302 2500 RA BR 
     BECMG 2302/2303 6000 NSC 
     TEMPO 2303/2308 4000 RA BR 
     TEMPO 2308/2315 2500 RA BR
       
VVNB 221800Z 02006KT 9999 BKN046 18/10 Q1021 NOSIG
TAF VVNB 221700Z 2218/2318 02005KT 9999 SCT020
       
VVTS 221800Z VRB01KT 9999 FEW017 SCT050 26/25 Q1008 NOSIG
TAF VVTS 221700Z 2218/2324 VRB02KT 9999 SCT015 SCT040 
     BECMG 2301/2302 06010KT